sensor_id;sensor_type;location;lat;lon;timestamp;P1;durP1;ratioP1;P2;durP2;ratioP2
58528;SDS011;44322;52.968;5.816;2022-10-16T00:01:51;7.03;;;1.73;;
58528;SDS011;44322;52.968;5.816;2022-10-16T00:04:17;9.15;;;3.15;;
58528;SDS011;44322;52.968;5.816;2022-10-16T00:06:43;15.35;;;7.22;;
58528;SDS011;44322;52.968;5.816;2022-10-16T00:09:09;8.95;;;3.90;;
58528;SDS011;44322;52.968;5.816;2022-10-16T00:11:35;13.88;;;6.78;;
58528;SDS011;44322;52.968;5.816;2022-10-16T00:14:06;15.75;;;8.57;;
58528;SDS011;44322;52.968;5.816;2022-10-16T00:16:36;10.55;;;5.13;;
58528;SDS011;44322;52.968;5.816;2022-10-16T00:19:03;4.95;;;2.75;;
58528;SDS011;44322;52.968;5.816;2022-10-16T00:21:29;5.78;;;2.40;;
58528;SDS011;44322;52.968;5.816;2022-10-16T00:23:57;4.07;;;1.98;;
58528;SDS011;44322;52.968;5.816;2022-10-16T00:26:30;4.72;;;1.60;;
58528;SDS011;44322;52.968;5.816;2022-10-16T00:28:57;5.85;;;1.55;;
58528;SDS011;44322;52.968;5.816;2022-10-16T00:31:24;4.68;;;1.80;;
58528;SDS011;44322;52.968;5.816;2022-10-16T00:33:51;3.05;;;1.20;;
58528;SDS011;44322;52.968;5.816;2022-10-16T00:36:18;6.28;;;2.38;;
58528;SDS011;44322;52.968;5.816;2022-10-16T00:38:46;4.47;;;1.95;;
58528;SDS011;44322;52.968;5.816;2022-10-16T00:41:16;4.13;;;1.95;;
58528;SDS011;44322;52.968;5.816;2022-10-16T00:43:43;7.00;;;1.77;;
58528;SDS011;44322;52.968;5.816;2022-10-16T00:46:21;5.00;;;1.83;;
58528;SDS011;44322;52.968;5.816;2022-10-16T00:54:15;6.30;;;3.13;;
58528;SDS011;44322;52.968;5.816;2022-10-16T00:56:45;3.42;;;2.20;;
58528;SDS011;44322;52.968;5.816;2022-10-16T00:59:16;6.88;;;2.20;;
58528;SDS011;44322;52.968;5.816;2022-10-16T01:01:52;6.78;;;2.90;;
58528;SDS011;44322;52.968;5.816;2022-10-16T01:09:42;5.82;;;1.80;;
58528;SDS011;44322;52.968;5.816;2022-10-16T01:12:18;6.43;;;1.70;;
58528;SDS011;44322;52.968;5.816;2022-10-16T01:15:59;5.22;;;1.52;;
58528;SDS011;44322;52.968;5.816;2022-10-16T01:18:03;2.70;;;1.42;;
58528;SDS011;44322;52.968;5.816;2022-10-16T01:20:56;7.13;;;1.50;;
58528;SDS011;44322;52.968;5.816;2022-10-16T01:26:31;6.70;;;1.88;;
58528;SDS011;44322;52.968;5.816;2022-10-16T01:31:42;5.65;;;1.90;;
58528;SDS011;44322;52.968;5.816;2022-10-16T01:34:47;3.22;;;1.80;;
58528;SDS011;44322;52.968;5.816;2022-10-16T01:37:13;3.80;;;1.45;;
58528;SDS011;44322;52.968;5.816;2022-10-16T01:39:45;3.60;;;1.50;;
58528;SDS011;44322;52.968;5.816;2022-10-16T01:42:17;5.68;;;2.17;;
58528;SDS011;44322;52.968;5.816;2022-10-16T01:44:47;3.33;;;1.90;;
58528;SDS011;44322;52.968;5.816;2022-10-16T01:47:15;5.10;;;1.92;;
58528;SDS011;44322;52.968;5.816;2022-10-16T01:49:44;3.92;;;2.17;;
58528;SDS011;44322;52.968;5.816;2022-10-16T01:52:12;5.70;;;1.98;;
58528;SDS011;44322;52.968;5.816;2022-10-16T01:54:43;4.90;;;2.33;;
58528;SDS011;44322;52.968;5.816;2022-10-16T01:57:12;5.50;;;2.10;;
58528;SDS011;44322;52.968;5.816;2022-10-16T01:59:45;7.93;;;2.30;;
58528;SDS011;44322;52.968;5.816;2022-10-16T02:02:14;4.05;;;2.28;;
58528;SDS011;44322;52.968;5.816;2022-10-16T02:04:45;4.47;;;2.83;;
58528;SDS011;44322;52.968;5.816;2022-10-16T02:07:14;4.20;;;2.10;;
58528;SDS011;44322;52.968;5.816;2022-10-16T02:09:41;7.65;;;3.20;;
58528;SDS011;44322;52.968;5.816;2022-10-16T02:12:14;6.43;;;2.88;;
58528;SDS011;44322;52.968;5.816;2022-10-16T02:14:49;3.83;;;2.22;;
58528;SDS011;44322;52.968;5.816;2022-10-16T02:17:16;4.40;;;2.00;;
58528;SDS011;44322;52.968;5.816;2022-10-16T02:19:42;3.45;;;2.33;;
58528;SDS011;44322;52.968;5.816;2022-10-16T02:25:10;4.90;;;2.22;;
58528;SDS011;44322;52.968;5.816;2022-10-16T02:30:33;4.25;;;1.95;;
58528;SDS011;44322;52.968;5.816;2022-10-16T02:33:07;2.97;;;1.70;;
58528;SDS011;44322;52.968;5.816;2022-10-16T02:35:34;3.67;;;2.13;;
58528;SDS011;44322;52.968;5.816;2022-10-16T02:38:02;4.63;;;2.20;;
58528;SDS011;44322;52.968;5.816;2022-10-16T02:40:28;4.47;;;1.90;;
58528;SDS011;44322;52.968;5.816;2022-10-16T02:42:55;3.08;;;1.77;;
58528;SDS011;44322;52.968;5.816;2022-10-16T02:45:21;3.60;;;1.75;;
58528;SDS011;44322;52.968;5.816;2022-10-16T02:47:47;6.28;;;1.95;;
58528;SDS011;44322;52.968;5.816;2022-10-16T02:50:13;3.25;;;1.52;;
58528;SDS011;44322;52.968;5.816;2022-10-16T02:52:40;5.38;;;1.70;;
58528;SDS011;44322;52.968;5.816;2022-10-16T02:55:06;3.22;;;1.42;;
58528;SDS011;44322;52.968;5.816;2022-10-16T02:57:32;3.40;;;1.30;;
58528;SDS011;44322;52.968;5.816;2022-10-16T02:59:58;2.97;;;1.30;;
58528;SDS011;44322;52.968;5.816;2022-10-16T03:02:24;3.30;;;1.75;;
58528;SDS011;44322;52.968;5.816;2022-10-16T03:04:50;4.15;;;1.30;;
58528;SDS011;44322;52.968;5.816;2022-10-16T03:07:16;2.28;;;1.13;;
58528;SDS011;44322;52.968;5.816;2022-10-16T03:09:41;3.15;;;1.40;;
58528;SDS011;44322;52.968;5.816;2022-10-16T03:12:07;1.67;;;1.00;;
58528;SDS011;44322;52.968;5.816;2022-10-16T03:14:33;5.03;;;1.25;;
58528;SDS011;44322;52.968;5.816;2022-10-16T03:16:59;5.65;;;1.40;;
58528;SDS011;44322;52.968;5.816;2022-10-16T03:19:25;3.70;;;1.20;;
58528;SDS011;44322;52.968;5.816;2022-10-16T03:21:51;2.42;;;1.42;;
58528;SDS011;44322;52.968;5.816;2022-10-16T03:24:17;3.70;;;1.40;;
58528;SDS011;44322;52.968;5.816;2022-10-16T03:26:42;2.15;;;1.20;;
58528;SDS011;44322;52.968;5.816;2022-10-16T03:29:08;4.03;;;1.73;;
58528;SDS011;44322;52.968;5.816;2022-10-16T03:31:34;2.97;;;1.05;;
58528;SDS011;44322;52.968;5.816;2022-10-16T03:34:00;2.08;;;1.20;;
58528;SDS011;44322;52.968;5.816;2022-10-16T03:36:26;4.20;;;1.23;;
58528;SDS011;44322;52.968;5.816;2022-10-16T03:38:52;1.90;;;1.38;;
58528;SDS011;44322;52.968;5.816;2022-10-16T03:41:18;2.45;;;1.30;;
58528;SDS011;44322;52.968;5.816;2022-10-16T03:43:43;3.85;;;1.40;;
58528;SDS011;44322;52.968;5.816;2022-10-16T03:46:09;3.47;;;1.58;;
58528;SDS011;44322;52.968;5.816;2022-10-16T03:48:35;3.30;;;1.38;;
58528;SDS011;44322;52.968;5.816;2022-10-16T03:51:01;4.88;;;1.50;;
58528;SDS011;44322;52.968;5.816;2022-10-16T03:53:27;3.97;;;1.20;;
58528;SDS011;44322;52.968;5.816;2022-10-16T03:55:52;4.90;;;1.58;;
58528;SDS011;44322;52.968;5.816;2022-10-16T03:58:18;2.67;;;1.20;;
58528;SDS011;44322;52.968;5.816;2022-10-16T04:00:45;4.75;;;1.40;;
58528;SDS011;44322;52.968;5.816;2022-10-16T04:03:12;3.65;;;1.38;;
58528;SDS011;44322;52.968;5.816;2022-10-16T04:05:38;2.78;;;1.10;;
58528;SDS011;44322;52.968;5.816;2022-10-16T04:08:04;4.78;;;1.50;;
58528;SDS011;44322;52.968;5.816;2022-10-16T04:10:30;2.67;;;1.08;;
58528;SDS011;44322;52.968;5.816;2022-10-16T04:12:56;4.95;;;1.50;;
58528;SDS011;44322;52.968;5.816;2022-10-16T04:15:23;4.18;;;1.35;;
58528;SDS011;44322;52.968;5.816;2022-10-16T04:17:50;2.88;;;1.35;;
58528;SDS011;44322;52.968;5.816;2022-10-16T04:20:16;2.85;;;1.35;;
58528;SDS011;44322;52.968;5.816;2022-10-16T04:22:42;4.22;;;1.70;;
58528;SDS011;44322;52.968;5.816;2022-10-16T04:25:08;4.53;;;1.73;;
58528;SDS011;44322;52.968;5.816;2022-10-16T04:27:34;6.60;;;1.75;;
58528;SDS011;44322;52.968;5.816;2022-10-16T04:30:00;3.53;;;1.35;;
58528;SDS011;44322;52.968;5.816;2022-10-16T04:32:26;5.15;;;1.90;;
58528;SDS011;44322;52.968;5.816;2022-10-16T04:34:52;2.40;;;1.42;;
58528;SDS011;44322;52.968;5.816;2022-10-16T04:37:18;2.85;;;1.40;;
58528;SDS011;44322;52.968;5.816;2022-10-16T04:39:44;3.67;;;1.65;;
58528;SDS011;44322;52.968;5.816;2022-10-16T04:42:10;3.95;;;1.80;;
58528;SDS011;44322;52.968;5.816;2022-10-16T04:44:36;5.68;;;1.55;;
58528;SDS011;44322;52.968;5.816;2022-10-16T04:47:02;3.53;;;1.55;;
58528;SDS011;44322;52.968;5.816;2022-10-16T04:49:29;6.20;;;1.77;;
58528;SDS011;44322;52.968;5.816;2022-10-16T04:51:55;3.97;;;1.70;;
58528;SDS011;44322;52.968;5.816;2022-10-16T04:54:21;8.10;;;2.08;;
58528;SDS011;44322;52.968;5.816;2022-10-16T04:56:46;4.05;;;1.55;;
58528;SDS011;44322;52.968;5.816;2022-10-16T04:59:14;2.05;;;1.52;;
58528;SDS011;44322;52.968;5.816;2022-10-16T05:01:40;4.38;;;1.45;;
58528;SDS011;44322;52.968;5.816;2022-10-16T05:04:06;5.50;;;1.60;;
58528;SDS011;44322;52.968;5.816;2022-10-16T05:06:32;2.80;;;1.63;;
58528;SDS011;44322;52.968;5.816;2022-10-16T05:08:58;4.28;;;1.75;;
58528;SDS011;44322;52.968;5.816;2022-10-16T05:11:24;5.25;;;1.95;;
58528;SDS011;44322;52.968;5.816;2022-10-16T05:13:49;6.32;;;1.73;;
58528;SDS011;44322;52.968;5.816;2022-10-16T05:16:15;4.20;;;2.00;;
58528;SDS011;44322;52.968;5.816;2022-10-16T05:18:41;4.65;;;2.10;;
58528;SDS011;44322;52.968;5.816;2022-10-16T05:21:07;4.28;;;2.20;;
58528;SDS011;44322;52.968;5.816;2022-10-16T05:23:33;6.03;;;2.33;;
58528;SDS011;44322;52.968;5.816;2022-10-16T05:25:59;5.55;;;2.25;;
58528;SDS011;44322;52.968;5.816;2022-10-16T05:28:26;3.08;;;1.90;;
58528;SDS011;44322;52.968;5.816;2022-10-16T05:30:53;8.98;;;2.28;;
58528;SDS011;44322;52.968;5.816;2022-10-16T05:33:20;6.63;;;2.50;;
58528;SDS011;44322;52.968;5.816;2022-10-16T05:35:46;4.43;;;1.83;;
58528;SDS011;44322;52.968;5.816;2022-10-16T05:38:12;6.47;;;2.22;;
58528;SDS011;44322;52.968;5.816;2022-10-16T05:40:38;8.93;;;2.15;;
58528;SDS011;44322;52.968;5.816;2022-10-16T05:43:04;5.85;;;1.77;;
58528;SDS011;44322;52.968;5.816;2022-10-16T05:45:30;5.20;;;2.08;;
58528;SDS011;44322;52.968;5.816;2022-10-16T05:47:56;4.78;;;2.10;;
58528;SDS011;44322;52.968;5.816;2022-10-16T05:50:22;4.85;;;1.90;;
58528;SDS011;44322;52.968;5.816;2022-10-16T05:52:48;6.25;;;1.70;;
58528;SDS011;44322;52.968;5.816;2022-10-16T05:55:13;4.18;;;2.00;;
58528;SDS011;44322;52.968;5.816;2022-10-16T05:57:40;5.30;;;1.90;;
58528;SDS011;44322;52.968;5.816;2022-10-16T06:00:06;4.75;;;1.70;;
58528;SDS011;44322;52.968;5.816;2022-10-16T06:02:38;5.43;;;1.83;;
58528;SDS011;44322;52.968;5.816;2022-10-16T06:05:04;5.65;;;1.60;;
58528;SDS011;44322;52.968;5.816;2022-10-16T06:07:33;5.10;;;1.70;;
58528;SDS011;44322;52.968;5.816;2022-10-16T06:10:00;7.72;;;1.92;;
58528;SDS011;44322;52.968;5.816;2022-10-16T06:12:26;4.78;;;1.85;;
58528;SDS011;44322;52.968;5.816;2022-10-16T06:14:52;5.18;;;1.50;;
58528;SDS011;44322;52.968;5.816;2022-10-16T06:17:20;6.53;;;1.80;;
58528;SDS011;44322;52.968;5.816;2022-10-16T06:19:46;3.65;;;1.60;;
58528;SDS011;44322;52.968;5.816;2022-10-16T06:22:12;4.32;;;1.63;;
58528;SDS011;44322;52.968;5.816;2022-10-16T06:24:38;4.55;;;1.65;;
58528;SDS011;44322;52.968;5.816;2022-10-16T06:27:04;3.63;;;1.70;;
58528;SDS011;44322;52.968;5.816;2022-10-16T06:29:30;5.57;;;2.00;;
58528;SDS011;44322;52.968;5.816;2022-10-16T06:31:56;4.07;;;2.03;;
58528;SDS011;44322;52.968;5.816;2022-10-16T06:34:22;7.30;;;2.38;;
58528;SDS011;44322;52.968;5.816;2022-10-16T06:36:48;5.93;;;1.85;;
58528;SDS011;44322;52.968;5.816;2022-10-16T06:39:13;5.03;;;1.70;;
58528;SDS011;44322;52.968;5.816;2022-10-16T06:41:40;3.78;;;1.98;;
58528;SDS011;44322;52.968;5.816;2022-10-16T06:44:14;4.22;;;1.75;;
58528;SDS011;44322;52.968;5.816;2022-10-16T06:46:40;5.00;;;1.85;;
58528;SDS011;44322;52.968;5.816;2022-10-16T06:49:06;2.90;;;1.52;;
58528;SDS011;44322;52.968;5.816;2022-10-16T06:51:32;5.50;;;1.88;;
58528;SDS011;44322;52.968;5.816;2022-10-16T06:54:00;6.35;;;1.83;;
58528;SDS011;44322;52.968;5.816;2022-10-16T06:56:27;4.82;;;2.00;;
58528;SDS011;44322;52.968;5.816;2022-10-16T06:58:55;6.47;;;2.00;;
58528;SDS011;44322;52.968;5.816;2022-10-16T07:01:21;3.20;;;1.60;;
58528;SDS011;44322;52.968;5.816;2022-10-16T07:06:16;3.55;;;1.55;;
58528;SDS011;44322;52.968;5.816;2022-10-16T07:08:44;6.55;;;1.60;;
58528;SDS011;44322;52.968;5.816;2022-10-16T07:11:15;3.88;;;1.70;;
58528;SDS011;44322;52.968;5.816;2022-10-16T07:13:43;7.88;;;1.73;;
58528;SDS011;44322;52.968;5.816;2022-10-16T07:16:11;3.92;;;1.77;;
58528;SDS011;44322;52.968;5.816;2022-10-16T07:18:39;5.18;;;2.35;;
58528;SDS011;44322;52.968;5.816;2022-10-16T07:21:08;5.13;;;1.83;;
58528;SDS011;44322;52.968;5.816;2022-10-16T07:23:36;5.93;;;2.30;;
58528;SDS011;44322;52.968;5.816;2022-10-16T07:26:02;4.60;;;1.77;;
58528;SDS011;44322;52.968;5.816;2022-10-16T07:28:29;6.40;;;2.03;;
58528;SDS011;44322;52.968;5.816;2022-10-16T07:30:59;5.15;;;2.22;;
58528;SDS011;44322;52.968;5.816;2022-10-16T07:33:30;5.18;;;1.55;;
58528;SDS011;44322;52.968;5.816;2022-10-16T07:35:56;7.68;;;1.80;;
58528;SDS011;44322;52.968;5.816;2022-10-16T07:38:22;6.07;;;1.40;;
58528;SDS011;44322;52.968;5.816;2022-10-16T07:40:55;3.90;;;1.38;;
58528;SDS011;44322;52.968;5.816;2022-10-16T07:43:22;6.05;;;1.40;;
58528;SDS011;44322;52.968;5.816;2022-10-16T07:45:48;3.47;;;1.00;;
58528;SDS011;44322;52.968;5.816;2022-10-16T07:48:15;2.50;;;1.30;;
58528;SDS011;44322;52.968;5.816;2022-10-16T07:50:42;5.47;;;1.52;;
58528;SDS011;44322;52.968;5.816;2022-10-16T07:53:09;2.67;;;1.55;;
58528;SDS011;44322;52.968;5.816;2022-10-16T07:55:36;5.22;;;1.48;;
58528;SDS011;44322;52.968;5.816;2022-10-16T07:58:02;5.35;;;1.63;;
58528;SDS011;44322;52.968;5.816;2022-10-16T08:00:29;6.15;;;2.20;;
58528;SDS011;44322;52.968;5.816;2022-10-16T08:02:59;3.67;;;1.70;;
58528;SDS011;44322;52.968;5.816;2022-10-16T08:05:26;7.05;;;2.03;;
58528;SDS011;44322;52.968;5.816;2022-10-16T08:07:53;4.78;;;2.03;;
58528;SDS011;44322;52.968;5.816;2022-10-16T08:10:19;2.92;;;1.90;;
58528;SDS011;44322;52.968;5.816;2022-10-16T08:12:46;4.15;;;2.17;;
58528;SDS011;44322;52.968;5.816;2022-10-16T08:15:12;4.53;;;2.40;;
58528;SDS011;44322;52.968;5.816;2022-10-16T08:17:38;6.63;;;2.25;;
58528;SDS011;44322;52.968;5.816;2022-10-16T08:20:03;4.75;;;2.30;;
58528;SDS011;44322;52.968;5.816;2022-10-16T08:22:30;7.78;;;3.13;;
58528;SDS011;44322;52.968;5.816;2022-10-16T08:24:56;3.30;;;2.10;;
58528;SDS011;44322;52.968;5.816;2022-10-16T08:27:22;4.90;;;2.05;;
58528;SDS011;44322;52.968;5.816;2022-10-16T08:29:48;7.63;;;2.38;;
58528;SDS011;44322;52.968;5.816;2022-10-16T08:32:14;9.10;;;2.28;;
58528;SDS011;44322;52.968;5.816;2022-10-16T08:34:41;5.15;;;2.15;;
58528;SDS011;44322;52.968;5.816;2022-10-16T08:37:07;6.63;;;2.00;;
58528;SDS011;44322;52.968;5.816;2022-10-16T08:39:36;6.07;;;1.80;;
58528;SDS011;44322;52.968;5.816;2022-10-16T08:44:58;5.93;;;2.05;;
58528;SDS011;44322;52.968;5.816;2022-10-16T08:50:09;5.85;;;1.90;;
58528;SDS011;44322;52.968;5.816;2022-10-16T08:52:38;5.88;;;1.70;;
58528;SDS011;44322;52.968;5.816;2022-10-16T08:55:08;8.38;;;1.90;;
58528;SDS011;44322;52.968;5.816;2022-10-16T08:57:50;8.00;;;2.40;;
58528;SDS011;44322;52.968;5.816;2022-10-16T09:00:16;6.18;;;2.15;;
58528;SDS011;44322;52.968;5.816;2022-10-16T09:02:53;5.03;;;1.90;;
58528;SDS011;44322;52.968;5.816;2022-10-16T09:14:06;7.13;;;2.33;;
58528;SDS011;44322;52.968;5.816;2022-10-16T09:22:35;6.10;;;2.10;;
58528;SDS011;44322;52.968;5.816;2022-10-16T09:25:10;5.88;;;2.13;;
58528;SDS011;44322;52.968;5.816;2022-10-16T09:27:40;6.03;;;1.95;;
58528;SDS011;44322;52.968;5.816;2022-10-16T09:30:14;7.30;;;1.88;;
58528;SDS011;44322;52.968;5.816;2022-10-16T09:32:43;8.75;;;2.00;;
58528;SDS011;44322;52.968;5.816;2022-10-16T09:35:19;8.82;;;1.80;;
58528;SDS011;44322;52.968;5.816;2022-10-16T09:37:58;11.60;;;2.05;;
58528;SDS011;44322;52.968;5.816;2022-10-16T09:46:31;8.40;;;1.90;;
58528;SDS011;44322;52.968;5.816;2022-10-16T09:49:02;8.07;;;1.75;;
58528;SDS011;44322;52.968;5.816;2022-10-16T09:51:31;8.32;;;1.75;;
58528;SDS011;44322;52.968;5.816;2022-10-16T09:56:40;7.72;;;1.63;;
58528;SDS011;44322;52.968;5.816;2022-10-16T09:59:11;5.82;;;2.00;;
58528;SDS011;44322;52.968;5.816;2022-10-16T10:01:44;7.53;;;1.95;;
58528;SDS011;44322;52.968;5.816;2022-10-16T10:04:13;6.35;;;1.80;;
58528;SDS011;44322;52.968;5.816;2022-10-16T10:06:43;9.05;;;1.98;;
58528;SDS011;44322;52.968;5.816;2022-10-16T10:09:21;7.82;;;1.60;;
58528;SDS011;44322;52.968;5.816;2022-10-16T10:11:51;7.00;;;2.28;;
58528;SDS011;44322;52.968;5.816;2022-10-16T10:19:47;10.25;;;2.10;;
58528;SDS011;44322;52.968;5.816;2022-10-16T10:27:43;11.25;;;2.35;;
58528;SDS011;44322;52.968;5.816;2022-10-16T10:30:42;9.00;;;2.20;;
58528;SDS011;44322;52.968;5.816;2022-10-16T10:33:35;11.33;;;2.40;;
58528;SDS011;44322;52.968;5.816;2022-10-16T10:38:58;8.80;;;1.70;;
58528;SDS011;44322;52.968;5.816;2022-10-16T10:47:12;9.35;;;2.13;;
58528;SDS011;44322;52.968;5.816;2022-10-16T10:49:52;9.18;;;2.10;;
58528;SDS011;44322;52.968;5.816;2022-10-16T10:55:40;8.90;;;2.20;;
58528;SDS011;44322;52.968;5.816;2022-10-16T11:01:36;11.98;;;2.10;;
58528;SDS011;44322;52.968;5.816;2022-10-16T11:04:29;7.60;;;1.77;;
58528;SDS011;44322;52.968;5.816;2022-10-16T11:07:32;8.57;;;2.00;;
58528;SDS011;44322;52.968;5.816;2022-10-16T11:12:42;7.88;;;1.70;;
58528;SDS011;44322;52.968;5.816;2022-10-16T11:15:17;10.20;;;1.88;;
58528;SDS011;44322;52.968;5.816;2022-10-16T11:21:18;9.48;;;2.10;;
58528;SDS011;44322;52.968;5.816;2022-10-16T11:24:06;7.20;;;1.67;;
58528;SDS011;44322;52.968;5.816;2022-10-16T11:27:36;12.90;;;2.00;;
58528;SDS011;44322;52.968;5.816;2022-10-16T11:38:02;10.00;;;2.20;;
58528;SDS011;44322;52.968;5.816;2022-10-16T11:40:35;14.05;;;2.10;;
58528;SDS011;44322;52.968;5.816;2022-10-16T11:43:10;6.55;;;1.90;;
58528;SDS011;44322;52.968;5.816;2022-10-16T11:45:47;7.47;;;2.00;;
58528;SDS011;44322;52.968;5.816;2022-10-16T11:50:52;7.13;;;1.65;;
58528;SDS011;44322;52.968;5.816;2022-10-16T11:56:18;10.95;;;1.90;;
58528;SDS011;44322;52.968;5.816;2022-10-16T11:58:51;12.57;;;2.20;;
58528;SDS011;44322;52.968;5.816;2022-10-16T12:01:30;12.68;;;2.80;;
58528;SDS011;44322;52.968;5.816;2022-10-16T12:04:21;10.68;;;1.80;;
58528;SDS011;44322;52.968;5.816;2022-10-16T12:07:03;10.20;;;2.05;;
58528;SDS011;44322;52.968;5.816;2022-10-16T12:09:37;11.25;;;1.90;;
58528;SDS011;44322;52.968;5.816;2022-10-16T12:12:25;12.65;;;2.10;;
58528;SDS011;44322;52.968;5.816;2022-10-16T12:17:38;14.50;;;2.45;;
58528;SDS011;44322;52.968;5.816;2022-10-16T12:22:53;9.57;;;2.00;;
58528;SDS011;44322;52.968;5.816;2022-10-16T12:30:31;14.20;;;2.20;;
58528;SDS011;44322;52.968;5.816;2022-10-16T12:33:22;7.90;;;2.05;;
58528;SDS011;44322;52.968;5.816;2022-10-16T12:35:51;10.40;;;2.53;;
58528;SDS011;44322;52.968;5.816;2022-10-16T12:38:28;8.13;;;1.90;;
58528;SDS011;44322;52.968;5.816;2022-10-16T12:41:03;6.60;;;1.80;;
58528;SDS011;44322;52.968;5.816;2022-10-16T12:43:42;9.63;;;2.15;;
58528;SDS011;44322;52.968;5.816;2022-10-16T12:48:42;8.13;;;2.00;;
58528;SDS011;44322;52.968;5.816;2022-10-16T12:51:23;11.57;;;1.70;;
58528;SDS011;44322;52.968;5.816;2022-10-16T13:01:57;11.88;;;2.50;;
58528;SDS011;44322;52.968;5.816;2022-10-16T13:04:40;9.52;;;2.22;;
58528;SDS011;44322;52.968;5.816;2022-10-16T13:31:19;9.80;;;1.52;;
58528;SDS011;44322;52.968;5.816;2022-10-16T13:33:50;11.02;;;1.60;;
58528;SDS011;44322;52.968;5.816;2022-10-16T13:36:21;13.13;;;2.08;;
58528;SDS011;44322;52.968;5.816;2022-10-16T13:42:03;12.35;;;1.98;;
58528;SDS011;44322;52.968;5.816;2022-10-16T13:44:34;10.07;;;1.98;;
58528;SDS011;44322;52.968;5.816;2022-10-16T13:49:43;11.73;;;1.95;;
58528;SDS011;44322;52.968;5.816;2022-10-16T13:52:19;10.75;;;2.25;;
58528;SDS011;44322;52.968;5.816;2022-10-16T13:54:46;9.95;;;1.77;;
58528;SDS011;44322;52.968;5.816;2022-10-16T13:57:16;10.57;;;2.20;;
58528;SDS011;44322;52.968;5.816;2022-10-16T13:59:42;11.43;;;1.77;;
58528;SDS011;44322;52.968;5.816;2022-10-16T14:02:14;7.25;;;1.75;;
58528;SDS011;44322;52.968;5.816;2022-10-16T14:04:52;9.43;;;2.08;;
58528;SDS011;44322;52.968;5.816;2022-10-16T14:07:26;7.32;;;1.65;;
58528;SDS011;44322;52.968;5.816;2022-10-16T14:09:54;13.13;;;2.10;;
58528;SDS011;44322;52.968;5.816;2022-10-16T14:12:22;9.07;;;1.52;;
58528;SDS011;44322;52.968;5.816;2022-10-16T14:14:49;9.23;;;2.10;;
58528;SDS011;44322;52.968;5.816;2022-10-16T14:17:18;7.22;;;2.00;;
58528;SDS011;44322;52.968;5.816;2022-10-16T14:19:51;7.05;;;1.95;;
58528;SDS011;44322;52.968;5.816;2022-10-16T14:22:36;12.40;;;2.08;;
58528;SDS011;44322;52.968;5.816;2022-10-16T14:30:25;8.27;;;1.75;;
58528;SDS011;44322;52.968;5.816;2022-10-16T14:32:53;11.85;;;2.20;;
58528;SDS011;44322;52.968;5.816;2022-10-16T14:35:25;9.02;;;1.75;;
58528;SDS011;44322;52.968;5.816;2022-10-16T14:37:58;7.95;;;1.98;;
58528;SDS011;44322;52.968;5.816;2022-10-16T14:40:27;7.10;;;1.52;;
58528;SDS011;44322;52.968;5.816;2022-10-16T14:42:55;10.93;;;1.98;;
58528;SDS011;44322;52.968;5.816;2022-10-16T14:45:23;7.43;;;2.20;;
58528;SDS011;44322;52.968;5.816;2022-10-16T14:47:55;8.40;;;2.08;;
58528;SDS011;44322;52.968;5.816;2022-10-16T14:50:40;9.25;;;1.95;;
58528;SDS011;44322;52.968;5.816;2022-10-16T14:53:12;5.00;;;1.45;;
58528;SDS011;44322;52.968;5.816;2022-10-16T14:55:38;10.93;;;2.33;;
58528;SDS011;44322;52.968;5.816;2022-10-16T14:58:05;8.73;;;2.25;;
58528;SDS011;44322;52.968;5.816;2022-10-16T15:00:39;8.20;;;2.75;;
58528;SDS011;44322;52.968;5.816;2022-10-16T15:03:04;9.50;;;2.55;;
58528;SDS011;44322;52.968;5.816;2022-10-16T15:05:30;6.10;;;2.08;;
58528;SDS011;44322;52.968;5.816;2022-10-16T15:07:57;9.73;;;2.25;;
58528;SDS011;44322;52.968;5.816;2022-10-16T15:10:24;10.18;;;2.15;;
58528;SDS011;44322;52.968;5.816;2022-10-16T15:12:52;6.78;;;1.60;;
58528;SDS011;44322;52.968;5.816;2022-10-16T15:17:51;11.43;;;2.17;;
58528;SDS011;44322;52.968;5.816;2022-10-16T15:20:20;4.97;;;1.60;;
58528;SDS011;44322;52.968;5.816;2022-10-16T15:22:47;12.15;;;2.15;;
58528;SDS011;44322;52.968;5.816;2022-10-16T15:27:59;9.18;;;1.70;;
58528;SDS011;44322;52.968;5.816;2022-10-16T15:30:26;12.38;;;2.05;;
58528;SDS011;44322;52.968;5.816;2022-10-16T15:32:52;9.32;;;1.95;;
58528;SDS011;44322;52.968;5.816;2022-10-16T15:35:18;7.90;;;1.58;;
58528;SDS011;44322;52.968;5.816;2022-10-16T15:37:46;7.00;;;1.85;;
58528;SDS011;44322;52.968;5.816;2022-10-16T15:40:12;7.63;;;1.60;;
58528;SDS011;44322;52.968;5.816;2022-10-16T15:42:38;7.35;;;1.95;;
58528;SDS011;44322;52.968;5.816;2022-10-16T15:45:04;6.75;;;1.80;;
58528;SDS011;44322;52.968;5.816;2022-10-16T15:47:35;8.48;;;1.50;;
58528;SDS011;44322;52.968;5.816;2022-10-16T15:50:05;9.85;;;2.50;;
58528;SDS011;44322;52.968;5.816;2022-10-16T15:52:33;7.82;;;1.85;;
58528;SDS011;44322;52.968;5.816;2022-10-16T15:54:59;9.50;;;2.60;;
58528;SDS011;44322;52.968;5.816;2022-10-16T15:57:27;11.18;;;1.85;;
58528;SDS011;44322;52.968;5.816;2022-10-16T15:59:54;9.68;;;2.10;;
58528;SDS011;44322;52.968;5.816;2022-10-16T16:02:20;9.57;;;1.60;;
58528;SDS011;44322;52.968;5.816;2022-10-16T16:04:45;10.85;;;2.47;;
58528;SDS011;44322;52.968;5.816;2022-10-16T16:07:11;7.03;;;1.70;;
58528;SDS011;44322;52.968;5.816;2022-10-16T16:09:37;9.30;;;1.70;;
58528;SDS011;44322;52.968;5.816;2022-10-16T16:12:03;11.60;;;2.38;;
58528;SDS011;44322;52.968;5.816;2022-10-16T16:14:29;10.65;;;2.10;;
58528;SDS011;44322;52.968;5.816;2022-10-16T16:16:56;6.47;;;1.65;;
58528;SDS011;44322;52.968;5.816;2022-10-16T16:19:23;6.65;;;1.55;;
58528;SDS011;44322;52.968;5.816;2022-10-16T16:21:49;13.27;;;2.08;;
58528;SDS011;44322;52.968;5.816;2022-10-16T16:24:16;8.27;;;2.00;;
58528;SDS011;44322;52.968;5.816;2022-10-16T16:26:42;7.15;;;1.70;;
58528;SDS011;44322;52.968;5.816;2022-10-16T16:29:12;9.48;;;2.42;;
58528;SDS011;44322;52.968;5.816;2022-10-16T16:31:39;8.80;;;1.65;;
58528;SDS011;44322;52.968;5.816;2022-10-16T16:34:05;8.90;;;1.52;;
58528;SDS011;44322;52.968;5.816;2022-10-16T16:36:32;6.47;;;1.70;;
58528;SDS011;44322;52.968;5.816;2022-10-16T16:38:59;11.90;;;1.90;;
58528;SDS011;44322;52.968;5.816;2022-10-16T16:41:27;11.10;;;1.70;;
58528;SDS011;44322;52.968;5.816;2022-10-16T16:43:55;7.82;;;1.80;;
58528;SDS011;44322;52.968;5.816;2022-10-16T16:46:26;8.48;;;2.15;;
58528;SDS011;44322;52.968;5.816;2022-10-16T16:48:52;7.47;;;1.70;;
58528;SDS011;44322;52.968;5.816;2022-10-16T16:51:20;7.80;;;1.63;;
58528;SDS011;44322;52.968;5.816;2022-10-16T16:53:48;7.88;;;1.80;;
58528;SDS011;44322;52.968;5.816;2022-10-16T16:56:16;8.85;;;1.95;;
58528;SDS011;44322;52.968;5.816;2022-10-16T16:58:55;8.00;;;2.35;;
58528;SDS011;44322;52.968;5.816;2022-10-16T17:01:26;8.43;;;2.15;;
58528;SDS011;44322;52.968;5.816;2022-10-16T17:03:53;13.05;;;2.65;;
58528;SDS011;44322;52.968;5.816;2022-10-16T17:08:48;8.52;;;2.33;;
58528;SDS011;44322;52.968;5.816;2022-10-16T17:11:16;12.95;;;2.80;;
58528;SDS011;44322;52.968;5.816;2022-10-16T17:13:43;10.68;;;2.40;;
58528;SDS011;44322;52.968;5.816;2022-10-16T17:16:09;8.95;;;2.20;;
58528;SDS011;44322;52.968;5.816;2022-10-16T17:18:41;8.80;;;1.95;;
58528;SDS011;44322;52.968;5.816;2022-10-16T17:21:08;8.20;;;2.20;;
58528;SDS011;44322;52.968;5.816;2022-10-16T17:23:35;9.65;;;2.10;;
58528;SDS011;44322;52.968;5.816;2022-10-16T17:26:12;8.10;;;1.70;;
58528;SDS011;44322;52.968;5.816;2022-10-16T17:28:40;5.95;;;1.80;;
58528;SDS011;44322;52.968;5.816;2022-10-16T17:31:10;11.63;;;2.40;;
58528;SDS011;44322;52.968;5.816;2022-10-16T17:33:41;7.25;;;2.25;;
58528;SDS011;44322;52.968;5.816;2022-10-16T17:36:08;6.47;;;1.90;;
58528;SDS011;44322;52.968;5.816;2022-10-16T17:38:35;7.57;;;2.10;;
58528;SDS011;44322;52.968;5.816;2022-10-16T17:43:48;7.90;;;2.35;;
58528;SDS011;44322;52.968;5.816;2022-10-16T17:47:01;8.82;;;2.30;;